Time;durP1;ratioP1;P1;durP2;ratioP2;P2;SDS_P1;SDS_P2;PMS_P1;PMS_P2;Temp;Humidity;BMP_temperature;BMP_pressure;BME280_temperature;BME280_humidity;BME280_pressure;Samples;Min_cycle;Max_cycle;Signal;HPM_P1;HPM_P2
2022/04/11 00:01:04;;;;;;;4.28;1.75;;;;;;;3.66;74.87;101591.03;5068363;28;20044;-72
2022/04/11 00:03:31;;;;;;;3.67;1.95;;;;;;;3.77;73.71;101586.59;5068780;28;20063;-72
2022/04/11 00:05:58;;;;;;;7.55;2.28;;;;;;;3.23;75.67;101590.56;5067940;28;20048;-72
2022/04/11 00:08:24;;;;;;;4.22;2.35;;;;;;;3.31;75.69;101582.75;5068213;28;20562;-72
2022/04/11 00:10:50;;;;;;;7.88;2.28;;;;;;;3.25;75.73;101582.81;5067643;28;20438;-72
2022/04/11 00:13:18;;;;;;;9.27;2.38;;;;;;;3.74;74.35;101581.44;5068680;28;20053;-72
2022/04/11 00:15:45;;;;;;;7.80;2.40;;;;;;;4.06;72.75;101582.84;5069063;28;20044;-72
2022/04/11 00:18:11;;;;;;;5.60;2.35;;;;;;;4.31;71.75;101576.47;5068815;28;20048;-72
2022/04/11 00:20:38;;;;;;;7.07;2.08;;;;;;;4.56;69.52;101577.88;5066509;28;20086;-72
2022/04/11 00:23:05;;;;;;;4.68;1.98;;;;;;;4.24;69.71;101569.66;5068333;28;20040;-72
2022/04/11 00:25:31;;;;;;;5.78;2.00;;;;;;;4.10;70.07;101577.56;5068986;28;20049;-72
2022/04/11 00:27:57;;;;;;;4.10;2.00;;;;;;;4.17;69.89;101579.25;5068308;28;20045;-72
2022/04/11 00:30:25;;;;;;;5.18;1.92;;;;;;;4.04;69.92;101582.00;5067966;28;20048;-71
2022/04/11 00:32:51;;;;;;;5.40;2.50;;;;;;;3.56;71.24;101588.56;5068126;28;20052;-71
2022/04/11 00:35:18;;;;;;;4.10;1.92;;;;;;;3.23;73.29;101590.56;5068798;28;20048;-71
2022/04/11 00:37:44;;;;;;;5.72;1.95;;;;;;;3.10;73.81;101599.34;5068337;28;20489;-71
2022/04/11 00:40:11;;;;;;;13.70;2.75;;;;;;;2.24;78.15;101598.09;5067074;28;20112;-71
2022/04/11 00:42:38;;;;;;;8.55;2.40;;;;;;;2.55;76.67;101596.19;5052122;28;20416;-71
2022/04/11 00:45:05;;;;;;;5.32;2.15;;;;;;;3.00;74.14;101594.19;5068497;28;20044;-71
2022/04/11 00:47:33;;;;;;;6.63;2.35;;;;;;;2.33;77.36;101597.16;5066860;28;20045;-70
2022/04/11 00:50:03;;;;;;;4.57;2.55;;;;;;;2.35;78.59;101592.88;5067152;28;20114;-70
2022/04/11 00:52:32;;;;;;;4.35;2.13;;;;;;;2.62;76.95;101599.66;5067154;28;20090;-71
2022/04/11 00:54:59;;;;;;;6.95;2.15;;;;;;;3.11;74.45;101597.56;5068758;28;20558;-71
2022/04/11 00:57:27;;;;;;;5.95;2.25;;;;;;;3.27;73.95;101594.00;5068358;28;20113;-71
2022/04/11 00:59:54;;;;;;;4.57;2.03;;;;;;;2.91;74.38;101596.00;5066667;28;20070;-71
2022/04/11 01:02:20;;;;;;;5.15;2.20;;;;;;;2.58;75.07;101598.81;5068019;28;20504;-71
2022/04/11 01:04:48;;;;;;;4.57;1.92;;;;;;;2.23;77.23;101601.53;5067439;28;20040;-71
2022/04/11 01:07:14;;;;;;;4.30;2.20;;;;;;;2.18;78.27;101603.28;5067863;28;20040;-71
2022/04/11 01:09:41;;;;;;;7.55;2.25;;;;;;;2.29;77.44;101598.09;5067021;28;20065;-71
2022/04/11 01:12:08;;;;;;;5.13;2.10;;;;;;;2.16;78.43;101598.97;5068264;28;20098;-71
2022/04/11 01:14:35;;;;;;;4.53;2.08;;;;;;;2.25;76.63;101610.19;5067617;28;20427;-71
2022/04/11 01:17:01;;;;;;;5.25;2.55;;;;;;;2.31;76.14;101606.69;5067492;28;20737;-72
2022/04/11 01:19:28;;;;;;;4.63;1.95;;;;;;;2.18;76.64;101607.63;5066814;28;20068;-71
2022/04/11 01:21:55;;;;;;;7.53;2.63;;;;;;;1.83;79.13;101605.97;5067578;28;20051;-71
2022/04/11 01:24:22;;;;;;;6.97;2.20;;;;;;;1.98;78.38;101599.03;5067461;28;20056;-71
2022/04/11 01:26:50;;;;;;;6.90;2.47;;;;;;;2.18;76.95;101599.84;5066529;28;20044;-71
2022/04/11 01:29:18;;;;;;;6.85;2.40;;;;;;;2.27;76.57;101607.56;5067373;28;20459;-71
2022/04/11 01:31:44;;;;;;;6.70;2.63;;;;;;;1.87;78.00;101605.13;5067608;28;20044;-71
2022/04/11 01:34:11;;;;;;;6.03;2.65;;;;;;;1.58;79.20;101606.03;5067930;28;20102;-71
2022/04/11 01:36:37;;;;;;;5.65;2.58;;;;;;;1.79;78.81;101606.84;5067304;28;20078;-71
2022/04/11 01:39:05;;;;;;;6.95;3.15;;;;;;;2.13;76.85;101606.75;5066704;28;20106;-71
2022/04/11 01:41:31;;;;;;;6.78;2.55;;;;;;;1.80;76.97;101595.66;5066949;28;20595;-71
2022/04/11 01:43:58;;;;;;;4.60;2.30;;;;;;;1.54;77.95;101606.88;5066793;28;20037;-71
2022/04/11 01:46:24;;;;;;;4.40;2.67;;;;;;;1.51;78.39;101600.00;5067288;28;20106;-71
2022/04/11 01:48:50;;;;;;;11.70;3.10;;;;;;;1.64;77.71;101598.25;5066824;28;20048;-71
2022/04/11 01:51:18;;;;;;;5.40;2.35;;;;;;;1.93;76.03;101591.28;5067311;28;20098;-71
2022/04/11 01:53:44;;;;;;;5.65;2.72;;;;;;;1.78;74.30;101591.31;5067035;28;20052;-71
2022/04/11 01:56:12;;;;;;;6.70;2.38;;;;;;;1.68;75.06;101594.81;5067624;28;20053;-71
2022/04/11 01:58:38;;;;;;;6.00;2.50;;;;;;;1.41;76.11;101590.53;5066637;28;20044;-71
2022/04/11 02:01:05;;;;;;;7.07;2.55;;;;;;;1.44;77.85;101588.78;5046873;28;20065;-71
2022/04/11 02:03:31;;;;;;;6.82;3.22;;;;;;;1.18;79.71;101592.28;5054708;28;20056;-71
2022/04/11 02:05:57;;;;;;;5.20;3.17;;;;;;;1.23;79.18;101596.56;5067242;28;20041;-71
2022/04/11 02:08:24;;;;;;;8.70;3.50;;;;;;;1.50;78.27;101595.69;5067549;28;20090;-71
2022/04/11 02:10:51;;;;;;;8.77;2.85;;;;;;;1.70;76.32;101599.09;5066508;28;20110;-71
2022/04/11 02:13:19;;;;;;;6.82;3.25;;;;;;;1.44;76.00;101601.72;5067106;28;20468;-71
2022/04/11 02:15:45;;;;;;;9.27;3.67;;;;;;;1.35;77.33;101596.56;5067089;28;20106;-71
2022/04/11 02:18:11;;;;;;;6.75;3.35;;;;;;;0.93;78.89;101601.69;5067286;28;20057;-71
2022/04/11 02:20:38;;;;;;;10.95;4.30;;;;;;;1.12;78.99;101589.66;5066507;28;20232;-71
2022/04/11 02:23:04;;;;;;;10.02;4.03;;;;;;;1.19;79.11;101597.41;5066556;28;20102;-71
2022/04/11 02:25:34;;;;;;;8.32;3.80;;;;;;;1.59;77.59;101593.09;5067744;28;20123;-71
2022/04/11 02:28:01;;;;;;;7.18;4.07;;;;;;;1.42;76.35;101587.94;5066873;28;20052;-71
2022/04/11 02:30:29;;;;;;;10.13;4.50;;;;;;;1.08;78.34;101595.69;5066264;28;20110;-71
2022/04/11 02:32:56;;;;;;;11.77;4.20;;;;;;;0.96;79.37;101602.56;5066716;28;20040;-71
2022/04/11 02:35:23;;;;;;;6.00;3.88;;;;;;;1.49;77.55;101591.38;5070902;28;20044;-71
2022/04/11 02:37:49;;;;;;;10.73;4.18;;;;;;;1.48;76.63;101587.06;5062284;28;20118;-71
2022/04/11 02:40:17;;;;;;;8.13;4.22;;;;;;;0.98;78.35;101590.53;5070414;28;20102;-71
2022/04/11 02:42:45;;;;;;;12.18;4.35;;;;;;;0.78;79.91;101587.06;5070335;28;20041;-71
2022/04/11 02:45:12;;;;;;;7.78;4.50;;;;;;;0.63;81.82;101581.03;5070238;28;20048;-71
2022/04/11 02:47:40;;;;;;;8.88;4.38;;;;;;;0.85;81.57;101582.78;5069656;28;20493;-70
2022/04/11 02:50:08;;;;;;;8.93;4.53;;;;;;;1.08;80.55;101585.34;5069888;28;20146;-70
2022/04/11 02:52:35;;;;;;;7.95;4.40;;;;;;;1.45;77.78;101576.75;5070651;28;20056;-70
2022/04/11 02:55:01;;;;;;;6.68;4.18;;;;;;;1.92;75.27;101580.09;5069959;28;21232;-70
2022/04/11 02:57:29;;;;;;;9.90;4.82;;;;;;;1.75;76.22;101571.53;5070795;28;20055;-70
2022/04/11 02:59:55;;;;;;;7.72;4.18;;;;;;;2.39;73.81;101576.47;5069384;28;20067;-70
2022/04/11 03:02:23;;;;;;;11.32;4.85;;;;;;;1.92;75.34;101572.31;5070307;28;20048;-70
2022/04/11 03:04:51;;;;;;;9.45;4.88;;;;;;;1.47;78.33;101575.03;5070187;28;20044;-70
2022/04/11 03:07:18;;;;;;;11.02;5.18;;;;;;;1.52;77.58;101572.41;5070118;28;20044;-70
2022/04/11 03:09:45;;;;;;;10.18;5.32;;;;;;;1.40;77.62;101578.50;5069262;28;20040;-70
2022/04/11 03:12:11;;;;;;;8.30;4.85;;;;;;;0.88;81.63;101573.31;5070214;28;20113;-70
2022/04/11 03:14:38;;;;;;;10.45;5.05;;;;;;;0.98;82.17;101575.03;5070006;28;20109;-70
2022/04/11 03:17:04;;;;;;;6.57;4.47;;;;;;;1.47;79.49;101575.03;5069641;28;20114;-70
2022/04/11 03:19:31;;;;;;;10.10;5.13;;;;;;;1.10;80.71;101578.50;5068543;28;20045;-71
2022/04/11 03:21:59;;;;;;;22.10;5.93;;;;;;;0.85;82.42;101572.47;5069514;28;20044;-71
2022/04/11 03:24:25;;;;;;;7.65;4.60;;;;;;;0.99;81.66;101586.25;5069936;28;20052;-71
2022/04/11 03:26:52;;;;;;;10.95;4.82;;;;;;;1.01;81.17;101573.31;5069850;28;20068;-71
2022/04/11 03:29:18;;;;;;;10.02;5.38;;;;;;;0.90;81.77;101571.59;5068906;28;20053;-71
2022/04/11 03:31:46;;;;;;;9.27;4.85;;;;;;;1.59;79.25;101563.81;5069924;28;20048;-71
2022/04/11 03:34:12;;;;;;;11.90;5.43;;;;;;;1.25;79.93;101565.56;5069522;28;20102;-71
2022/04/11 03:36:39;;;;;;;10.68;4.50;;;;;;;1.78;76.83;101557.72;5069481;28;20074;-71
2022/04/11 03:39:07;;;;;;;11.27;5.93;;;;;;;1.17;78.55;101562.13;5068935;28;20047;-71
2022/04/11 03:41:33;;;;;;;14.20;5.28;;;;;;;1.31;78.89;101553.50;5069099;28;20048;-71
2022/04/11 03:43:59;;;;;;;8.65;5.05;;;;;;;1.00;80.53;101558.69;5068742;28;20064;-71
2022/04/11 03:46:27;;;;;;;15.63;5.45;;;;;;;0.90;81.60;101550.06;5068916;28;20075;-71
2022/04/11 03:48:54;;;;;;;8.10;5.18;;;;;;;0.88;81.60;101554.38;5068672;28;20044;-71
2022/04/11 03:51:20;;;;;;;10.02;4.45;;;;;;;0.79;81.90;101549.19;5069752;28;20052;-71
2022/04/11 03:53:48;;;;;;;6.18;3.85;;;;;;;1.47;78.79;101544.03;5068790;28;20040;-71
2022/04/11 03:56:17;;;;;;;11.38;5.10;;;;;;;1.61;78.15;101542.25;5069295;28;20067;-71
2022/04/11 03:58:43;;;;;;;10.13;5.00;;;;;;;1.47;78.93;101538.84;5068650;28;20040;-71
2022/04/11 04:01:10;;;;;;;13.93;4.53;;;;;;;1.48;79.13;101544.88;5068938;28;20132;-71
2022/04/11 04:03:37;;;;;;;12.27;4.45;;;;;;;1.62;77.78;101544.00;5068697;28;20064;-71
2022/04/11 04:06:04;;;;;;;8.32;4.07;;;;;;;1.39;78.78;101550.91;5069259;28;20052;-71
2022/04/11 04:08:30;;;;;;;9.57;4.60;;;;;;;1.42;79.27;101546.59;5069440;28;20102;-71
2022/04/11 04:10:57;;;;;;;7.63;3.92;;;;;;;1.92;76.88;101543.03;5068894;28;20045;-71
2022/04/11 04:13:24;;;;;;;8.90;4.22;;;;;;;1.93;77.12;101545.59;5068536;28;20052;-70
2022/04/11 04:15:51;;;;;;;9.65;4.20;;;;;;;2.23;76.19;101546.34;5069015;28;20454;-71
2022/04/11 04:18:17;;;;;;;6.38;3.58;;;;;;;1.63;77.97;101545.69;5068328;28;20049;-71
2022/04/11 04:20:44;;;;;;;11.98;4.88;;;;;;;0.96;81.27;101557.84;5060361;28;20115;-72
2022/04/11 04:23:10;;;;;;;6.20;4.10;;;;;;;1.00;81.46;101549.19;5063420;28;20155;-72
2022/04/11 04:25:37;;;;;;;12.98;5.30;;;;;;;0.88;81.83;101565.56;5066078;28;20068;-71
2022/04/11 04:28:04;;;;;;;7.97;4.20;;;;;;;1.08;81.83;101559.53;5067633;28;20044;-71
2022/04/11 04:30:32;;;;;;;8.52;4.97;;;;;;;0.71;82.75;101558.66;5067254;28;20473;-71
2022/04/11 04:32:59;;;;;;;10.05;4.97;;;;;;;0.71;82.99;101564.66;5067721;28;20045;-71
2022/04/11 04:35:26;;;;;;;11.63;5.47;;;;;;;0.80;82.56;101569.00;5068667;28;20045;-71
2022/04/11 04:37:53;;;;;;;10.82;5.25;;;;;;;1.09;81.45;101566.44;5068345;28;20040;-71
2022/04/11 04:40:19;;;;;;;7.63;3.75;;;;;;;1.22;80.68;101570.75;5069246;28;20048;-71
2022/04/11 04:42:46;;;;;;;10.32;4.05;;;;;;;1.50;79.36;101562.09;5071207;28;20044;-71
2022/04/11 04:45:13;;;;;;;7.28;4.28;;;;;;;1.90;77.74;101571.47;5071385;28;20467;-71
2022/04/11 04:47:41;;;;;;;8.43;4.25;;;;;;;1.95;77.05;101574.06;5075618;28;20401;-72
2022/04/11 04:50:08;;;;;;;9.30;4.70;;;;;;;2.10;76.51;101563.66;5067759;28;20041;-71
2022/04/11 04:52:35;;;;;;;10.15;4.22;;;;;;;2.03;76.77;101571.44;5068109;28;20056;-72
2022/04/11 04:55:01;;;;;;;8.95;4.13;;;;;;;1.73;77.71;101570.69;5068744;28;20630;-71
2022/04/11 04:57:28;;;;;;;10.75;4.00;;;;;;;1.36;79.74;101569.00;5067971;28;20145;-71
2022/04/11 04:59:55;;;;;;;10.73;4.15;;;;;;;1.75;78.36;101574.09;5069299;28;20052;-71
2022/04/11 05:02:21;;;;;;;10.02;4.60;;;;;;;1.43;79.39;101581.06;5069397;28;20079;-71
2022/04/11 05:04:49;;;;;;;10.48;4.95;;;;;;;1.85;78.00;101573.22;5070868;28;20040;-71
2022/04/11 05:07:15;;;;;;;11.07;5.00;;;;;;;1.23;80.87;101570.72;5067458;28;20144;-71
2022/04/11 05:09:42;;;;;;;11.95;3.90;;;;;;;1.42;80.56;101577.63;5051457;28;20101;-70
2022/04/11 05:12:09;;;;;;;10.20;4.85;;;;;;;1.41;80.40;101580.19;5071326;28;20086;-70
2022/04/11 05:14:35;;;;;;;12.75;4.55;;;;;;;1.08;82.49;101580.19;5067105;28;20098;-71
2022/04/11 05:17:01;;;;;;;8.82;4.72;;;;;;;0.94;83.21;101583.66;5067792;28;20093;-71
2022/04/11 05:19:29;;;;;;;9.00;4.18;;;;;;;1.41;82.24;101580.19;5066873;28;20044;-71
2022/04/11 05:21:56;;;;;;;8.93;4.03;;;;;;;1.80;80.30;101584.44;5067221;28;20142;-71
2022/04/11 05:24:23;;;;;;;9.60;4.18;;;;;;;1.79;79.99;101577.53;5066794;28;20052;-71
2022/04/11 05:26:49;;;;;;;8.43;3.80;;;;;;;2.12;79.35;101579.16;5068172;28;20040;-71
2022/04/11 05:29:15;;;;;;;10.18;3.75;;;;;;;2.41;77.73;101579.88;5067029;28;20098;-71
2022/04/11 05:31:42;;;;;;;8.30;3.40;;;;;;;2.76;76.72;101588.34;5067996;28;20040;-73
2022/04/11 05:34:08;;;;;;;10.00;3.30;;;;;;;3.43;74.27;101586.09;5067441;28;20412;-72
2022/04/11 05:36:34;;;;;;;7.88;2.78;;;;;;;3.79;72.79;101581.41;5066789;28;20458;-71
2022/04/11 05:39:02;;;;;;;7.07;3.30;;;;;;;4.18;71.27;101591.34;5067034;28;20471;-71
2022/04/11 05:41:28;;;;;;;5.07;2.28;;;;;;;4.10;71.43;101577.56;5067607;28;20040;-71
2022/04/11 05:43:55;;;;;;;7.25;3.17;;;;;;;4.38;70.47;101583.31;5067746;28;20170;-71
2022/04/11 05:46:21;;;;;;;7.45;2.72;;;;;;;4.34;70.33;101579.03;5067434;28;20044;-72
2022/04/11 05:48:47;;;;;;;4.45;2.53;;;;;;;3.31;74.14;101585.31;5064061;28;20106;-74
2022/04/11 05:51:14;;;;;;;9.35;2.97;;;;;;;4.02;72.53;101583.75;5067218;28;20049;-73
2022/04/11 05:53:41;;;;;;;9.40;3.50;;;;;;;4.12;71.24;101583.63;5067095;28;20286;-75
2022/04/11 05:56:09;;;;;;;6.45;2.97;;;;;;;4.04;71.94;101582.00;5067098;28;20049;-75
2022/04/11 05:58:35;;;;;;;7.50;2.80;;;;;;;4.07;72.11;101576.75;5067873;28;20071;-75
2022/04/11 06:01:01;;;;;;;5.10;2.90;;;;;;;4.52;70.35;101577.91;5067042;28;20044;-75
2022/04/11 06:03:28;;;;;;;6.70;2.90;;;;;;;5.00;69.04;101578.94;5066800;28;20045;-75
2022/04/11 06:05:55;;;;;;;5.65;2.20;;;;;;;5.22;68.48;101585.53;5066937;28;20047;-74
2022/04/11 06:08:21;;;;;;;5.35;2.83;;;;;;;5.78;66.78;101582.81;5069284;28;20424;-73
2022/04/11 06:10:47;;;;;;;10.85;3.25;;;;;;;4.98;68.76;101591.97;5070053;28;20055;-74
2022/04/11 06:13:15;;;;;;;7.50;3.00;;;;;;;5.58;67.72;101590.09;5071561;28;20102;-73
2022/04/11 06:15:41;;;;;;;8.23;3.00;;;;;;;6.38;64.55;101592.94;5071812;28;20471;-74
2022/04/11 06:18:08;;;;;;;6.00;2.90;;;;;;;6.12;64.29;101588.25;5070670;28;20040;-73
2022/04/11 06:20:34;;;;;;;6.70;3.08;;;;;;;5.98;65.56;101584.22;5070564;28;20060;-73
2022/04/11 06:23:01;;;;;;;4.45;2.90;;;;;;;6.31;66.04;101584.41;5069881;28;20052;-73
2022/04/11 06:25:27;;;;;;;5.15;2.90;;;;;;;5.91;67.14;101586.09;5071224;28;20048;-73
2022/04/11 06:27:53;;;;;;;9.07;3.25;;;;;;;6.20;66.57;101591.56;5070748;28;20090;-73
2022/04/11 06:30:21;;;;;;;8.35;4.60;;;;;;;5.81;66.35;101580.13;5070755;28;20045;-73
2022/04/11 06:32:47;;;;;;;7.63;3.88;;;;;;;5.98;67.98;101585.06;5070702;28;20445;-73
2022/04/11 06:35:14;;;;;;;9.10;3.47;;;;;;;7.01;64.84;101595.00;5070963;28;20101;-73
2022/04/11 06:37:41;;;;;;;8.85;3.38;;;;;;;7.70;62.89;101577.59;5070784;28;20045;-73
2022/04/11 06:40:08;;;;;;;8.52;3.15;;;;;;;8.56;60.46;101586.50;5069633;28;20044;-73
2022/04/11 06:42:35;;;;;;;4.18;3.15;;;;;;;9.54;57.36;101585.94;5070563;28;20044;-73
2022/04/11 06:45:01;;;;;;;5.20;2.70;;;;;;;8.53;57.80;101579.63;5060767;28;20044;-73
2022/04/11 06:47:29;;;;;;;5.78;2.83;;;;;;;7.90;61.83;101589.25;5071942;28;20105;-72
2022/04/11 06:49:55;;;;;;;7.43;2.97;;;;;;;8.55;60.87;101601.34;5069621;28;20500;-72
2022/04/11 06:52:21;;;;;;;5.00;2.70;;;;;;;9.72;58.28;101584.44;5070661;28;20496;-72
2022/04/11 06:54:48;;;;;;;6.32;2.92;;;;;;;10.16;55.40;101588.16;5070720;28;20048;-72
2022/04/11 06:57:14;;;;;;;5.80;2.83;;;;;;;10.11;56.17;101590.06;5070308;28;20428;-71
2022/04/11 06:59:40;;;;;;;5.15;2.70;;;;;;;10.79;53.27;101590.09;5069291;28;20581;-71
2022/04/11 07:02:07;;;;;;;6.35;3.20;;;;;;;10.55;53.18;101593.69;5069179;28;20097;-71
2022/04/11 07:04:35;;;;;;;5.53;2.85;;;;;;;10.66;53.64;101589.75;5068865;28;20052;-71
2022/04/11 07:07:01;;;;;;;10.55;3.17;;;;;;;11.15;50.61;101587.81;5064753;28;20048;-71
2022/04/11 07:09:31;;;;;;;6.38;2.88;;;;;;;11.30;52.73;101587.19;5069269;28;20106;-72
2022/04/11 07:11:57;;;;;;;5.38;2.35;;;;;;;10.92;52.98;101591.34;5058076;28;20052;-72
2022/04/11 07:17:06;;;;;;;7.10;2.67;;;;;;;11.87;50.70;101583.03;5058460;28;20052;-72
2022/04/11 07:19:32;;;;;;;6.03;2.90;;;;;;;10.18;52.44;101586.34;5068027;28;20441;-71
2022/04/11 07:22:00;;;;;;;6.85;3.08;;;;;;;11.16;51.53;101577.22;5070016;28;20102;-71
2022/04/11 07:24:36;;;;;;;8.02;2.90;;;;;;;11.88;52.00;101582.09;5068709;28;20036;-72
2022/04/11 07:27:03;;;;;;;8.80;2.85;;;;;;;11.61;50.35;101579.72;5060746;28;20105;-72
2022/04/11 07:29:30;;;;;;;4.63;2.70;;;;;;;12.83;48.40;101587.34;5068188;28;20052;-72
2022/04/11 07:31:56;;;;;;;4.25;2.50;;;;;;;12.21;49.32;101583.25;5068913;28;20090;-72
2022/04/11 07:34:22;;;;;;;6.85;3.10;;;;;;;12.50;48.96;101584.53;5068400;28;20048;-72
2022/04/11 07:36:49;;;;;;;12.43;2.97;;;;;;;12.26;48.30;101589.16;5069452;28;20093;-72
2022/04/11 07:39:18;;;;;;;13.50;2.95;;;;;;;11.71;50.92;101588.09;5068842;28;20545;-72
2022/04/11 07:41:44;;;;;;;7.07;2.90;;;;;;;10.86;52.84;101590.75;5069676;28;20051;-73
2022/04/11 07:44:11;;;;;;;6.07;2.90;;;;;;;11.21;54.53;101587.53;5069916;28;20679;-72
2022/04/11 07:46:37;;;;;;;9.30;3.20;;;;;;;10.60;52.65;101591.75;5068279;28;20044;-72
2022/04/11 07:49:04;;;;;;;4.68;2.80;;;;;;;11.15;52.20;101586.03;5068673;28;20091;-72
2022/04/11 07:51:30;;;;;;;8.20;2.85;;;;;;;10.64;53.22;101588.94;5069458;28;20052;-72
2022/04/11 07:53:57;;;;;;;4.93;2.63;;;;;;;10.94;54.92;101579.00;5069546;28;20098;-72
2022/04/11 07:56:24;;;;;;;5.03;2.85;;;;;;;11.50;51.63;101588.97;5068912;28;20048;-72
2022/04/11 07:58:51;;;;;;;7.03;2.63;;;;;;;11.59;52.96;101584.19;5068594;28;20044;-72
2022/04/11 08:01:17;;;;;;;5.63;2.75;;;;;;;11.27;52.78;101596.97;5073281;28;20093;-72
2022/04/11 08:03:44;;;;;;;5.57;2.67;;;;;;;11.47;51.03;101582.06;5069518;28;20046;-72
2022/04/11 08:06:10;;;;;;;4.45;2.47;;;;;;;12.33;51.67;101576.56;5068802;28;20055;-73
2022/04/11 08:08:37;;;;;;;6.85;2.53;;;;;;;12.87;48.86;101584.53;5069139;28;20044;-73
2022/04/11 08:11:03;;;;;;;5.60;2.50;;;;;;;11.56;50.33;101584.31;5064339;28;20068;-73
2022/04/11 08:13:31;;;;;;;6.38;2.53;;;;;;;11.64;53.17;101576.13;5067625;28;20040;-73
2022/04/11 08:15:57;;;;;;;6.45;2.90;;;;;;;11.23;51.88;101586.56;5060068;28;20481;-72
2022/04/11 08:18:23;;;;;;;7.53;3.00;;;;;;;11.94;51.96;101585.31;5066767;28;20041;-72
2022/04/11 08:20:50;;;;;;;4.85;2.42;;;;;;;12.44;50.23;101584.81;5067115;28;20044;-72
2022/04/11 08:23:16;;;;;;;5.03;2.42;;;;;;;12.64;49.08;101582.13;5066829;28;20072;-73
2022/04/11 08:25:42;;;;;;;6.15;2.60;;;;;;;12.97;49.52;101579.69;5065945;28;20041;-73
2022/04/11 08:28:09;;;;;;;7.68;2.70;;;;;;;13.43;49.19;101578.28;5067224;28;20106;-73
2022/04/11 08:30:37;;;;;;;5.78;2.95;;;;;;;13.76;48.84;101581.84;5055208;28;20048;-73
2022/04/11 08:33:03;;;;;;;8.55;3.00;;;;;;;13.84;49.49;101574.41;5064396;28;20059;-73
2022/04/11 08:35:29;;;;;;;8.32;3.10;;;;;;;14.24;50.10;101578.41;5068207;28;20053;-73
2022/04/11 08:37:56;;;;;;;7.40;2.72;;;;;;;14.77;44.03;101579.97;5068306;28;20048;-73
2022/04/11 08:40:22;;;;;;;6.53;2.65;;;;;;;13.50;47.55;101582.31;5066123;28;20102;-73
2022/04/11 08:42:50;;;;;;;6.80;3.13;;;;;;;12.91;47.29;101579.97;5068147;28;20040;-73
2022/04/11 08:45:19;;;;;;;4.05;2.42;;;;;;;13.96;48.51;101578.19;5067091;28;20094;-73
2022/04/11 08:47:48;;;;;;;5.30;2.70;;;;;;;14.58;44.97;101578.34;5067565;28;20041;-74
2022/04/11 08:50:15;;;;;;;7.22;2.55;;;;;;;14.99;44.13;101572.53;5066586;28;20055;-74
2022/04/11 08:52:42;;;;;;;10.77;3.15;;;;;;;16.06;42.87;101575.88;5067425;28;20044;-74
2022/04/11 08:55:10;;;;;;;7.22;2.63;;;;;;;16.76;40.90;101571.47;5066759;28;20044;-75
2022/04/11 08:57:37;;;;;;;8.23;3.00;;;;;;;15.98;45.78;101570.19;5048292;28;20099;-75
2022/04/11 09:00:06;;;;;;;7.32;2.80;;;;;;;16.41;43.34;101568.38;5056978;28;20530;-75
2022/04/11 09:02:33;;;;;;;5.15;2.63;;;;;;;15.84;41.79;101573.69;5067584;28;20049;-74
2022/04/11 09:05:01;;;;;;;7.18;2.63;;;;;;;16.29;43.75;101570.00;5066772;28;20040;-74
2022/04/11 09:07:27;;;;;;;8.02;2.67;;;;;;;17.67;42.70;101560.97;5068215;28;20060;-74
2022/04/11 09:09:58;;;;;;;7.20;3.00;;;;;;;16.91;40.71;101563.41;5063443;28;20101;-75
2022/04/11 09:12:26;;;;;;;6.03;2.50;;;;;;;16.68;39.30;101561.38;5067118;28;20043;-74
2022/04/11 09:14:56;;;;;;;8.48;2.80;;;;;;;17.31;38.14;101556.31;5067525;28;20044;-74
2022/04/11 09:17:23;;;;;;;8.57;2.80;;;;;;;16.41;39.37;101565.72;5066462;28;20046;-70
2022/04/11 09:20:07;;;;;;;5.45;2.60;;;;;;;16.06;43.49;101562.63;5066745;28;20053;-70
2022/04/11 09:22:34;;;;;;;5.35;2.55;;;;;;;16.63;45.23;101555.50;5067914;28;20058;-70
2022/04/11 09:25:11;;;;;;;6.18;2.90;;;;;;;16.37;38.62;101556.31;5066545;28;20040;-70
2022/04/11 09:27:37;;;;;;;7.00;2.92;;;;;;;16.60;41.22;101562.78;5068061;28;20048;-70
2022/04/11 09:30:27;;;;;;;8.85;2.80;;;;;;;16.55;38.54;101550.66;5067496;28;20049;-71
2022/04/11 09:33:00;;;;;;;4.57;2.30;;;;;;;17.90;34.34;101546.13;5066787;28;20148;-71
2022/04/11 09:35:29;;;;;;;5.90;2.47;;;;;;;19.09;34.22;101533.94;5067535;28;20053;-71
2022/04/11 09:38:10;;;;;;;5.10;2.83;;;;;;;19.43;31.80;101529.63;5067253;28;20044;-71
2022/04/11 09:40:42;;;;;;;4.03;2.47;;;;;;;18.47;34.77;101542.03;5065072;28;20056;-71
2022/04/11 09:43:09;;;;;;;4.13;2.47;;;;;;;18.82;37.19;101538.63;5067038;28;20048;-71
2022/04/11 09:45:41;;;;;;;5.72;2.78;;;;;;;18.83;36.56;101540.31;5066654;28;20064;-71
2022/04/11 09:48:08;;;;;;;4.70;2.20;;;;;;;18.08;35.87;101533.34;5067409;28;20531;-71
2022/04/11 09:50:36;;;;;;;3.75;2.38;;;;;;;18.03;32.57;101531.06;5067178;28;20082;-70
2022/04/11 09:53:11;;;;;;;7.85;2.67;;;;;;;18.26;35.44;101529.41;5066844;28;20044;-70
2022/04/11 09:55:38;;;;;;;5.55;2.88;;;;;;;18.23;34.88;101529.63;5067333;28;20052;-70
2022/04/11 09:58:06;;;;;;;7.30;2.70;;;;;;;18.69;35.82;101528.06;5067285;28;20048;-70
2022/04/11 10:00:34;;;;;;;5.57;2.53;;;;;;;18.28;34.13;101531.00;5065798;28;20052;-70
2022/04/11 10:03:01;;;;;;;4.45;2.92;;;;;;;18.17;37.59;101533.59;5066787;28;20052;-70
2022/04/11 10:05:28;;;;;;;6.45;2.60;;;;;;;19.01;38.03;101528.34;5067471;28;20075;-70
2022/04/11 10:07:56;;;;;;;5.85;2.72;;;;;;;18.51;29.43;101525.84;5066816;28;20045;-70
2022/04/11 10:10:23;;;;;;;4.85;2.03;;;;;;;17.90;32.76;101517.78;5066225;28;20331;-70
2022/04/11 10:12:52;;;;;;;3.67;2.28;;;;;;;18.08;29.17;101526.25;5067087;28;20044;-70
2022/04/11 10:15:18;;;;;;;3.92;2.40;;;;;;;17.16;30.67;101525.53;5067019;28;20053;-70
2022/04/11 10:17:46;;;;;;;7.38;2.75;;;;;;;17.37;29.76;101510.81;5067233;28;20412;-70
2022/04/11 10:20:12;;;;;;;6.43;3.10;;;;;;;17.92;31.78;101517.69;5066766;28;20105;-70
2022/04/11 10:22:47;;;;;;;5.63;3.17;;;;;;;18.25;28.77;101507.34;5071943;28;20044;-70
2022/04/11 10:25:16;;;;;;;5.57;2.30;;;;;;;18.75;32.51;101498.38;5094245;28;20074;-70
2022/04/11 10:27:44;;;;;;;5.82;2.50;;;;;;;18.71;30.38;101506.69;5093984;28;20029;-70
2022/04/11 10:30:27;;;;;;;6.13;2.85;;;;;;;18.41;27.89;101507.06;5092638;28;20062;-70
2022/04/11 10:32:55;;;;;;;4.95;2.55;;;;;;;18.23;29.11;101503.06;5092273;28;20037;-70
2022/04/11 10:35:33;;;;;;;3.97;2.30;;;;;;;17.60;28.69;101500.47;5111588;28;20115;-70
2022/04/11 10:38:07;;;;;;;6.65;2.63;;;;;;;17.45;31.14;101500.56;5090641;28;20063;-70
2022/04/11 10:40:36;;;;;;;6.18;2.97;;;;;;;18.46;29.43;101500.47;5067571;28;20094;-70
2022/04/11 10:43:17;;;;;;;5.10;2.75;;;;;;;17.93;32.40;101490.19;5066027;28;20546;-70
2022/04/11 10:45:46;;;;;;;5.43;3.00;;;;;;;17.87;29.63;101487.97;5067221;28;20573;-70
2022/04/11 10:48:13;;;;;;;6.10;3.05;;;;;;;17.52;31.40;101490.38;5066632;28;20049;-70
2022/04/11 10:50:41;;;;;;;7.30;3.15;;;;;;;17.41;32.06;101491.09;5066503;28;20474;-70
2022/04/11 10:53:13;;;;;;;4.10;2.63;;;;;;;16.59;31.03;101494.94;5054767;28;20045;-70
2022/04/11 10:56:05;;;;;;;6.88;2.60;;;;;;;16.87;28.90;101500.13;5069886;28;20045;-70
2022/04/11 10:58:53;;;;;;;6.70;3.00;;;;;;;17.22;32.35;101485.34;5067080;28;20044;-70
2022/04/11 11:01:59;;;;;;;4.53;3.22;;;;;;;17.87;35.46;101477.34;5065578;28;20048;-70
2022/04/11 11:04:32;;;;;;;5.20;2.85;;;;;;;18.12;29.26;101463.19;5070009;28;20052;-70
2022/04/11 11:07:24;;;;;;;6.18;3.05;;;;;;;18.73;30.87;101464.91;5052375;28;20122;-70
2022/04/11 11:09:55;;;;;;;8.93;3.22;;;;;;;19.00;30.73;101473.47;5067132;28;20040;-71
2022/04/11 11:12:23;;;;;;;5.38;3.10;;;;;;;18.43;29.08;101474.16;5069999;28;20572;-70
2022/04/11 11:14:49;;;;;;;5.53;3.13;;;;;;;17.52;30.25;101475.31;5070525;28;20094;-70
2022/04/11 11:17:16;;;;;;;5.95;3.15;;;;;;;17.94;30.33;101465.34;5070479;28;20052;-70
2022/04/11 11:20:02;;;;;;;4.25;3.10;;;;;;;18.35;26.68;101476.50;5069657;28;20090;-70
2022/04/11 11:22:32;;;;;;;4.90;2.90;;;;;;;17.74;27.42;101469.41;5062938;28;20481;-70
2022/04/11 11:25:16;;;;;;;7.40;3.00;;;;;;;17.27;28.42;101463.84;5068544;28;20162;-70
2022/04/11 11:27:45;;;;;;;7.22;2.92;;;;;;;17.08;29.28;101466.88;5069547;28;20412;-70
2022/04/11 11:30:12;;;;;;;6.40;3.47;;;;;;;17.26;29.94;101452.38;5068921;28;20094;-70
2022/04/11 11:32:41;;;;;;;4.93;3.00;;;;;;;16.91;29.35;101456.56;5069872;28;20071;-70
2022/04/11 11:35:09;;;;;;;5.63;3.15;;;;;;;17.22;32.16;101456.19;5069483;28;20417;-70